createdAt,value
2017-04-10T00:00:48.567Z,6.99
2017-04-10T00:01:48.555Z,6.99
2017-04-10T00:02:48.548Z,6.94
2017-04-10T00:03:48.534Z,6.98
2017-04-10T00:04:48.528Z,6.95
2017-04-10T00:05:48.514Z,7.03
2017-04-10T00:06:48.505Z,7.03
2017-04-10T00:07:48.493Z,6.88
2017-04-10T00:08:48.488Z,6.85
2017-04-10T00:09:48.475Z,6.85
2017-04-10T00:10:48.461Z,6.87
2017-04-10T00:11:48.450Z,6.87
2017-04-10T00:12:48.441Z,6.89
2017-04-10T00:13:48.428Z,6.89
2017-04-10T00:14:48.420Z,6.87
2017-04-10T00:15:48.410Z,6.88
2017-04-10T00:16:48.397Z,6.88
2017-04-10T00:17:48.392Z,6.88
2017-04-10T00:18:48.378Z,6.81
2017-04-10T00:19:48.366Z,6.84
2017-04-10T00:20:48.358Z,6.88
2017-04-10T00:21:48.349Z,6.8
2017-04-10T00:22:48.346Z,6.8
2017-04-10T00:23:48.024Z,6.84
2017-04-10T00:24:48.318Z,6.81
2017-04-10T00:25:48.304Z,6.81
2017-04-10T00:26:48.295Z,6.76
2017-04-10T00:27:48.536Z,6.74
2017-04-10T00:28:47.970Z,6.8
2017-04-10T00:29:47.655Z,6.77
2017-04-10T00:30:48.258Z,6.71
2017-04-10T00:31:48.241Z,6.77
2017-04-10T00:32:48.484Z,6.81
2017-04-10T00:33:48.224Z,6.7
2017-04-10T00:34:48.213Z,6.79
2017-04-10T00:35:47.903Z,6.71
2017-04-10T00:36:47.885Z,6.66
2017-04-10T00:37:48.481Z,6.7
2017-04-10T00:38:48.169Z,6.73
2017-04-10T00:39:48.158Z,6.69
2017-04-10T00:40:48.154Z,6.73
2017-04-10T00:41:48.135Z,6.66
2017-04-10T00:42:48.383Z,6.71
2017-04-10T00:43:48.118Z,6.7
2017-04-10T00:44:48.108Z,6.59
2017-04-10T00:45:47.790Z,6.67
2017-04-10T00:46:48.090Z,6.74
2017-04-10T00:47:48.322Z,6.71
2017-04-10T00:48:48.063Z,6.61
2017-04-10T00:49:48.053Z,6.67
2017-04-10T00:50:48.041Z,6.66
2017-04-10T00:51:48.030Z,6.61
2017-04-10T00:52:48.374Z,6.61
2017-04-10T00:53:47.709Z,6.64
2017-04-10T00:54:48.004Z,6.54
2017-04-10T00:55:47.987Z,6.56
2017-04-10T00:56:47.982Z,6.59
2017-04-10T00:57:48.219Z,6.51
2017-04-10T00:58:47.958Z,6.52
2017-04-10T00:59:47.948Z,6.58
2017-04-10T01:00:47.936Z,6.51
2017-04-10T01:01:47.926Z,6.48
2017-04-10T01:02:48.219Z,6.48
2017-04-10T01:03:47.905Z,6.54
2017-04-10T01:04:47.894Z,6.56
2017-04-10T01:05:47.884Z,6.62
2017-04-10T01:06:47.871Z,6.56
2017-04-10T01:07:48.113Z,6.51
2017-04-10T01:08:47.849Z,6.66
2017-04-10T01:09:47.850Z,6.61
2017-04-10T01:10:47.830Z,6.62
2017-04-10T01:11:47.819Z,6.56
2017-04-10T01:12:48.061Z,6.61
2017-04-10T01:13:47.801Z,6.61
2017-04-10T01:14:47.790Z,6.59
2017-04-10T01:15:47.782Z,6.66
2017-04-10T01:16:47.765Z,6.61
2017-04-10T01:17:48.008Z,6.66
2017-04-10T01:18:47.746Z,6.62
2017-04-10T01:19:47.735Z,6.64
2017-04-10T01:20:47.721Z,6.61
2017-04-10T01:21:47.710Z,6.61
2017-04-10T01:22:48.007Z,6.61
2017-04-10T01:23:47.686Z,6.66
2017-04-10T01:24:47.377Z,6.62
2017-04-10T01:25:47.667Z,6.62
2017-04-10T01:26:47.660Z,6.64
2017-04-10T01:27:47.896Z,6.64
2017-04-10T01:28:47.636Z,6.59
2017-04-10T01:29:47.628Z,6.62
2017-04-10T01:30:47.615Z,6.61
2017-04-10T01:31:47.611Z,6.59
2017-04-10T01:32:47.898Z,6.54
2017-04-10T01:33:47.584Z,6.61
2017-04-10T01:34:47.570Z,6.54
2017-04-10T01:35:47.563Z,6.58
2017-04-10T01:36:47.247Z,6.54
2017-04-10T01:37:47.799Z,6.52
2017-04-10T01:38:47.529Z,6.59
2017-04-10T01:39:47.516Z,6.59
2017-04-10T01:40:47.508Z,6.55
2017-04-10T01:41:47.497Z,6.56
2017-04-10T01:42:47.788Z,6.48
2017-04-10T01:43:47.481Z,6.56
2017-04-10T01:44:47.463Z,6.55
2017-04-10T01:45:47.454Z,6.52
2017-04-10T01:46:47.440Z,6.54
2017-04-10T01:47:47.783Z,6.58
2017-04-10T01:48:47.421Z,6.59
2017-04-10T01:49:47.410Z,6.55
2017-04-10T01:50:47.399Z,6.54
2017-04-10T01:51:47.391Z,6.51
2017-04-10T01:52:47.630Z,6.52
2017-04-10T01:53:47.373Z,6.52
2017-04-10T01:54:47.357Z,6.38
2017-04-10T01:55:47.346Z,6.51
2017-04-10T01:56:47.334Z,6.48
2017-04-10T01:57:47.577Z,6.49
2017-04-10T01:58:47.312Z,6.48
2017-04-10T01:59:47.305Z,6.44
2017-04-10T02:00:47.290Z,6.54
2017-04-10T02:01:47.283Z,6.51
2017-04-10T02:02:46.967Z,6.46
2017-04-10T02:03:47.263Z,6.43
2017-04-10T02:04:46.945Z,6.44
2017-04-10T02:05:47.240Z,6.52
2017-04-10T02:06:47.228Z,6.51
2017-04-10T02:07:47.215Z,6.48
2017-04-10T02:08:47.211Z,6.51
2017-04-10T02:09:47.193Z,6.48
2017-04-10T02:10:47.185Z,6.55
2017-04-10T02:11:47.173Z,6.59
2017-04-10T02:12:47.166Z,6.52
2017-04-10T02:13:47.157Z,6.55
2017-04-10T02:14:47.148Z,6.56
2017-04-10T02:15:47.130Z,6.49
2017-04-10T02:16:47.119Z,6.51
2017-04-10T02:17:47.113Z,6.43
2017-04-10T02:18:47.101Z,6.4
2017-04-10T02:19:47.088Z,6.38
2017-04-10T02:20:47.074Z,6.43
2017-04-10T02:21:47.066Z,6.36
2017-04-10T02:22:47.073Z,6.33
2017-04-10T02:23:47.046Z,6.44
2017-04-10T02:24:47.034Z,6.36
2017-04-10T02:25:47.024Z,6.36
2017-04-10T02:26:47.032Z,6.3
2017-04-10T02:27:47.005Z,6.36
2017-04-10T02:28:46.991Z,6.4
2017-04-10T02:29:46.977Z,6.31
2017-04-10T02:30:46.968Z,6.31
2017-04-10T02:31:46.965Z,6.25
2017-04-10T02:32:46.947Z,6.22
2017-04-10T02:33:46.941Z,6.18
2017-04-10T02:34:46.926Z,6.28
2017-04-10T02:35:46.920Z,6.3
2017-04-10T02:36:46.904Z,6.25
2017-04-10T02:37:46.892Z,6.28
2017-04-10T02:38:46.881Z,6.25
2017-04-10T02:39:46.873Z,6.22
2017-04-10T02:40:46.865Z,6.3
2017-04-10T02:41:46.851Z,6.19
2017-04-10T02:42:46.841Z,6.36
2017-04-10T02:43:46.831Z,6.28
2017-04-10T02:44:46.825Z,6.28
2017-04-10T02:45:46.806Z,6.19
2017-04-10T02:46:46.797Z,6.22
2017-04-10T02:47:46.790Z,6.18
2017-04-10T02:48:46.779Z,6.19
2017-04-10T02:49:46.770Z,6.19
2017-04-10T02:50:46.753Z,6.21
2017-04-10T02:51:46.741Z,6.21
2017-04-10T02:52:46.730Z,6.17
2017-04-10T02:53:46.718Z,6.15
2017-04-10T02:54:46.708Z,6.18
2017-04-10T02:55:46.695Z,6.11
2017-04-10T02:56:46.684Z,6.14
2017-04-10T02:57:46.372Z,6.17
2017-04-10T02:58:46.665Z,6.12
2017-04-10T02:59:46.656Z,6.11
2017-04-10T03:00:46.644Z,6.14
2017-04-10T03:01:46.629Z,6
2017-04-10T03:02:46.625Z,6.06
2017-04-10T03:03:46.610Z,6.09
2017-04-10T03:04:46.602Z,6.09
2017-04-10T03:05:46.589Z,6.06
2017-04-10T03:06:46.605Z,6.06
2017-04-10T03:07:46.566Z,6.06
2017-04-10T03:08:46.567Z,6.01
2017-04-10T03:09:46.541Z,6.01
2017-04-10T03:10:46.572Z,6.01
2017-04-10T03:11:46.524Z,6.08
2017-04-10T03:12:46.514Z,6.01
2017-04-10T03:13:46.798Z,6.03
2017-04-10T03:14:46.487Z,5.94
2017-04-10T03:15:46.477Z,6
2017-04-10T03:16:46.464Z,6.01
2017-04-10T03:17:46.451Z,6.01
2017-04-10T03:18:46.693Z,6
2017-04-10T03:19:46.435Z,5.91
2017-04-10T03:20:46.421Z,6
2017-04-10T03:21:46.410Z,5.93
2017-04-10T03:22:46.097Z,6
2017-04-10T03:23:46.693Z,6.08
2017-04-10T03:24:46.377Z,6.11
2017-04-10T03:25:46.365Z,6.01
2017-04-10T03:26:46.354Z,5.97
2017-04-10T03:27:46.344Z,6.06
2017-04-10T03:28:46.693Z,6.09
2017-04-10T03:29:46.319Z,5.97
2017-04-10T03:30:46.312Z,6.06
2017-04-10T03:31:46.298Z,6.06
2017-04-10T03:32:45.987Z,6.04
2017-04-10T03:33:46.531Z,6.06
2017-04-10T03:34:45.963Z,6.01
2017-04-10T03:35:46.289Z,5.97
2017-04-10T03:36:46.245Z,6.01
2017-04-10T03:37:46.234Z,6.04
2017-04-10T03:38:46.474Z,5.94
2017-04-10T03:39:46.210Z,5.96
2017-04-10T03:40:46.198Z,5.94
2017-04-10T03:41:46.189Z,5.93
2017-04-10T03:42:46.174Z,5.97
2017-04-10T03:43:46.470Z,5.97
2017-04-10T03:44:46.161Z,5.96
2017-04-10T03:45:46.145Z,5.97
2017-04-10T03:46:46.130Z,5.91
2017-04-10T03:47:46.121Z,5.97
2017-04-10T03:48:46.359Z,5.99
2017-04-10T03:49:46.099Z,6
2017-04-10T03:50:46.087Z,5.97
2017-04-10T03:51:46.079Z,5.94
2017-04-10T03:52:45.763Z,5.99
2017-04-10T03:53:46.302Z,5.96
2017-04-10T03:54:46.042Z,5.99
2017-04-10T03:55:46.032Z,5.91
2017-04-10T03:56:46.028Z,5.97
2017-04-10T03:57:46.008Z,6.01
2017-04-10T03:58:46.286Z,5.97
2017-04-10T03:59:45.989Z,5.97
2017-04-10T04:00:45.976Z,5.97
2017-04-10T04:01:45.966Z,6.04
2017-04-10T04:02:45.953Z,6
2017-04-10T04:03:46.291Z,5.99
2017-04-10T04:04:45.933Z,6
2017-04-10T04:05:45.921Z,5.93
2017-04-10T04:06:45.909Z,6
2017-04-10T04:07:45.934Z,5.96
2017-04-10T04:08:46.186Z,6
2017-04-10T04:09:45.875Z,5.99
2017-04-10T04:10:45.863Z,6.03
2017-04-10T04:11:45.549Z,5.96
2017-04-10T04:12:45.841Z,6.03
2017-04-10T04:13:46.131Z,6.09
2017-04-10T04:14:45.818Z,6
2017-04-10T04:15:45.808Z,6.03
2017-04-10T04:16:45.797Z,6.01
2017-04-10T04:17:45.785Z,6.08
2017-04-10T04:18:46.031Z,6.12
2017-04-10T04:19:45.762Z,6.06
2017-04-10T04:20:45.756Z,6.09
2017-04-10T04:21:45.741Z,6.18
2017-04-10T04:22:45.729Z,6.12
2017-04-10T04:23:45.969Z,6.12
2017-04-10T04:24:45.406Z,6.15
2017-04-10T04:25:45.696Z,6.18
2017-04-10T04:26:45.689Z,6.19
2017-04-10T04:27:45.673Z,6.21
2017-04-10T04:28:45.917Z,6.25
2017-04-10T04:29:45.655Z,6.3
2017-04-10T04:30:45.641Z,6.25
2017-04-10T04:31:45.630Z,6.27
2017-04-10T04:32:45.622Z,6.3
2017-04-10T04:33:45.907Z,6.37
2017-04-10T04:34:45.598Z,6.37
2017-04-10T04:35:45.283Z,6.37
2017-04-10T04:36:45.575Z,6.51
2017-04-10T04:37:45.565Z,6.55
2017-04-10T04:38:45.853Z,6.61
2017-04-10T04:39:45.545Z,6.62
2017-04-10T04:40:45.536Z,6.69
2017-04-10T04:41:45.524Z,6.74
2017-04-10T04:42:45.509Z,6.76
2017-04-10T04:43:45.850Z,6.88
2017-04-10T04:44:45.491Z,6.99
2017-04-10T04:45:45.479Z,7.07
2017-04-10T04:46:45.468Z,7.15
2017-04-10T04:47:45.456Z,7.27
2017-04-10T04:48:45.704Z,7.37
2017-04-10T04:49:45.444Z,7.53
2017-04-10T04:50:45.427Z,7.57
2017-04-10T04:51:45.416Z,7.79
2017-04-10T04:52:45.409Z,7.83
2017-04-10T04:53:45.699Z,7.98
2017-04-10T04:54:45.390Z,8.15
2017-04-10T04:55:45.377Z,8.33
2017-04-10T04:56:45.066Z,8.4
2017-04-10T04:57:45.358Z,8.56
2017-04-10T04:58:45.648Z,8.65
2017-04-10T04:59:45.340Z,8.86
2017-04-10T05:00:45.331Z,9.05
2017-04-10T05:01:45.363Z,9.2
2017-04-10T05:02:45.313Z,9.39
2017-04-10T05:03:45.559Z,9.47
2017-04-10T05:04:45.295Z,9.71
2017-04-10T05:05:45.290Z,9.76
2017-04-10T05:06:45.278Z,9.93
2017-04-10T05:07:45.273Z,10.09
2017-04-10T05:08:45.614Z,10.25
2017-04-10T05:09:45.256Z,10.38
2017-04-10T05:10:45.248Z,10.53
2017-04-10T05:11:45.239Z,10.79
2017-04-10T05:12:45.238Z,10.97
2017-04-10T05:13:45.530Z,11.06
2017-04-10T05:14:45.220Z,11.27
2017-04-10T05:15:45.214Z,11.35
2017-04-10T05:16:45.207Z,11.55
2017-04-10T05:17:45.198Z,11.8
2017-04-10T05:18:45.497Z,11.99
2017-04-10T05:19:45.186Z,12.02
2017-04-10T05:20:45.181Z,12.14
2017-04-10T05:21:45.173Z,12.35
2017-04-10T05:22:45.168Z,12.53
2017-04-10T05:23:45.420Z,12.67
2017-04-10T05:24:45.158Z,12.86
2017-04-10T05:25:45.152Z,13.04
2017-04-10T05:26:44.846Z,13.23
2017-04-10T05:27:45.145Z,13.33
2017-04-10T05:28:45.440Z,13.44
2017-04-10T05:29:45.135Z,13.62
2017-04-10T05:30:45.134Z,13.84
2017-04-10T05:31:45.127Z,14.06
2017-04-10T05:32:45.121Z,14.22
2017-04-10T05:33:45.117Z,14.43
2017-04-10T05:34:45.117Z,14.5
2017-04-10T05:35:45.113Z,14.75
2017-04-10T05:36:45.107Z,14.94
2017-04-10T05:37:45.102Z,15.14
2017-04-10T05:38:45.103Z,15.32
2017-04-10T05:39:45.097Z,15.51
2017-04-10T05:40:45.094Z,15.59
2017-04-10T05:41:45.091Z,15.86
2017-04-10T05:42:45.089Z,15.97
2017-04-10T05:43:45.085Z,16.21
2017-04-10T05:44:45.083Z,16.45
2017-04-10T05:45:45.083Z,16.7
2017-04-10T05:46:45.082Z,16.83
2017-04-10T05:47:45.081Z,16.94
2017-04-10T05:48:45.080Z,17.03
2017-04-10T05:49:45.077Z,17.25
2017-04-10T05:50:44.774Z,17.36
2017-04-10T05:51:45.073Z,17.56
2017-04-10T05:52:45.072Z,17.77
2017-04-10T05:53:47.570Z,17.87
2017-04-10T05:54:45.069Z,18.08
2017-04-10T05:55:45.073Z,18.26
2017-04-10T05:56:45.071Z,18.45
2017-04-10T05:57:45.070Z,18.75
2017-04-10T05:58:45.674Z,18.85
2017-04-10T05:59:45.070Z,19.07
2017-04-10T06:00:44.766Z,19.28
2017-04-10T06:01:45.070Z,19.44
2017-04-10T06:02:45.069Z,19.59
2017-04-10T06:03:45.072Z,19.63
2017-04-10T06:04:45.077Z,19.69
2017-04-10T06:05:45.075Z,19.88
2017-04-10T06:06:45.076Z,19.92
2017-04-10T06:07:45.076Z,20.08
2017-04-10T06:08:45.077Z,20.26
2017-04-10T06:09:45.336Z,20.36
2017-04-10T06:10:44.783Z,20.54
2017-04-10T06:11:45.092Z,20.62
2017-04-10T06:12:45.092Z,20.8
2017-04-10T06:13:45.090Z,21.03
2017-04-10T06:14:45.394Z,21.07
2017-04-10T06:15:45.105Z,21.09
2017-04-10T06:16:45.101Z,21.37
2017-04-10T06:17:45.109Z,21.54
2017-04-10T06:18:45.106Z,21.56
2017-04-10T06:19:45.464Z,21.77
2017-04-10T06:20:45.113Z,21.92
2017-04-10T06:21:45.120Z,22.07
2017-04-10T06:22:45.125Z,22.25
2017-04-10T06:23:45.130Z,22.36
2017-04-10T06:24:45.432Z,22.52
2017-04-10T06:25:44.836Z,22.64
2017-04-10T06:26:45.145Z,22.65
2017-04-10T06:27:45.146Z,22.76
2017-04-10T06:28:45.152Z,22.73
2017-04-10T06:29:45.408Z,22.9
2017-04-10T06:30:44.862Z,22.97
2017-04-10T06:31:45.171Z,23.09
2017-04-10T06:32:45.174Z,23.28
2017-04-10T06:33:45.181Z,23.38
2017-04-10T06:34:45.436Z,23.54
2017-04-10T06:35:45.193Z,23.58
2017-04-10T06:36:45.211Z,23.63
2017-04-10T06:37:45.207Z,23.78
2017-04-10T06:38:45.211Z,23.88
2017-04-10T06:39:45.471Z,23.94
2017-04-10T06:40:45.234Z,23.98
2017-04-10T06:41:45.234Z,23.95
2017-04-10T06:42:45.244Z,23.97
2017-04-10T06:43:45.250Z,23.95
2017-04-10T06:44:45.558Z,23.91
2017-04-10T06:45:45.260Z,24.03
2017-04-10T06:46:45.269Z,24.13
2017-04-10T06:47:45.278Z,24.2
2017-04-10T06:48:45.289Z,24.4
2017-04-10T06:49:45.645Z,24.58
2017-04-10T06:50:45.300Z,24.83
2017-04-10T06:51:45.307Z,24.93
2017-04-10T06:52:45.316Z,25.09
2017-04-10T06:53:45.327Z,25.1
2017-04-10T06:54:45.581Z,25.21
2017-04-10T06:55:45.340Z,25.2
2017-04-10T06:56:45.348Z,25.36
2017-04-10T06:57:45.355Z,25.47
2017-04-10T06:58:45.373Z,25.64
2017-04-10T06:59:45.624Z,25.67
2017-04-10T07:00:45.385Z,25.97
2017-04-10T07:01:45.392Z,26.2
2017-04-10T07:02:45.402Z,26.47
2017-04-10T07:03:45.409Z,26.62
2017-04-10T07:04:45.744Z,26.6
2017-04-10T07:05:45.430Z,26.62
2017-04-10T07:06:45.435Z,26.65
2017-04-10T07:07:45.445Z,26.77
2017-04-10T07:08:45.453Z,26.81
2017-04-10T07:09:45.714Z,27.04
2017-04-10T07:10:45.479Z,27.03
2017-04-10T07:11:45.493Z,27.28
2017-04-10T07:12:45.493Z,27.6
2017-04-10T07:13:45.507Z,27.75
2017-04-10T07:14:45.765Z,27.97
2017-04-10T07:15:45.522Z,28.06
2017-04-10T07:16:45.534Z,28.09
2017-04-10T07:17:45.542Z,28.17
2017-04-10T07:18:45.553Z,28.21
2017-04-10T07:19:45.863Z,28.37
2017-04-10T07:20:45.575Z,28.41
2017-04-10T07:21:45.587Z,28.44
2017-04-10T07:22:45.593Z,28.52
2017-04-10T07:23:45.612Z,28.43
2017-04-10T07:24:45.871Z,28.24
2017-04-10T07:25:45.628Z,28.19
2017-04-10T07:26:45.638Z,28.17
2017-04-10T07:27:45.650Z,28.14
2017-04-10T07:28:45.662Z,28.11
2017-04-10T07:29:45.927Z,28.11
2017-04-10T07:30:45.683Z,28.15
2017-04-10T07:31:45.693Z,28.19
2017-04-10T07:32:45.702Z,28.29
2017-04-10T07:33:45.715Z,28.39
2017-04-10T07:34:46.027Z,28.48
2017-04-10T07:35:45.749Z,28.52
2017-04-10T07:36:45.749Z,28.55
2017-04-10T07:37:45.760Z,28.56
2017-04-10T07:38:45.805Z,28.55
2017-04-10T07:39:46.038Z,28.62
2017-04-10T07:40:45.806Z,28.76
2017-04-10T07:41:45.811Z,28.89
2017-04-10T07:42:45.825Z,28.92
2017-04-10T07:43:45.834Z,29
2017-04-10T07:44:46.203Z,28.92
2017-04-10T07:45:45.859Z,29
2017-04-10T07:46:45.873Z,28.89
2017-04-10T07:47:45.889Z,28.8
2017-04-10T07:48:45.897Z,28.88
2017-04-10T07:49:46.161Z,28.96
2017-04-10T07:50:45.934Z,28.89
2017-04-10T07:51:45.940Z,29.05
2017-04-10T07:52:45.952Z,29.16
2017-04-10T07:53:45.968Z,29.19
2017-04-10T07:54:56.027Z,29.21
2017-04-10T07:55:46.001Z,29.3
2017-04-10T07:56:46.009Z,29.36
2017-04-10T07:57:46.020Z,29.49
2017-04-10T07:58:46.031Z,29.58
2017-04-10T07:59:46.049Z,29.67
2017-04-10T08:00:46.367Z,29.74
2017-04-10T08:01:46.075Z,29.61
2017-04-10T08:02:46.089Z,29.57
2017-04-10T08:03:46.097Z,29.48
2017-04-10T08:04:46.111Z,29.45
2017-04-10T08:05:46.378Z,29.36
2017-04-10T08:06:46.139Z,29.26
2017-04-10T08:07:45.843Z,29.09
2017-04-10T08:08:46.161Z,28.96
2017-04-10T08:09:46.171Z,28.95
2017-04-10T08:10:46.130Z,28.67
2017-04-10T08:11:46.197Z,28.55
2017-04-10T08:12:46.208Z,28.44
2017-04-10T08:13:46.220Z,28.4
2017-04-10T08:14:45.927Z,28.27
2017-04-10T08:15:46.495Z,28.24
2017-04-10T08:16:46.255Z,28
2017-04-10T08:17:46.266Z,27.84
2017-04-10T08:18:45.978Z,27.77
2017-04-10T08:19:46.292Z,27.55
2017-04-10T08:20:46.651Z,27.37
2017-04-10T08:21:46.318Z,27.22
2017-04-10T08:22:46.326Z,27.18
2017-04-10T08:23:46.332Z,26.82
2017-04-10T08:24:46.344Z,26.7
2017-04-10T08:25:46.302Z,26.43
2017-04-10T08:26:46.070Z,26.2
2017-04-10T08:27:46.373Z,26.09
2017-04-10T08:28:46.385Z,25.87
2017-04-10T08:29:46.395Z,25.7
2017-04-10T08:30:46.484Z,25.46
2017-04-10T08:31:46.107Z,25.32
2017-04-10T08:32:46.466Z,25.09
2017-04-10T08:33:46.429Z,24.85
2017-04-10T08:34:46.436Z,24.67
2017-04-10T08:35:46.696Z,24.55
2017-04-10T08:36:46.450Z,24.21
2017-04-10T08:37:46.459Z,24.09
2017-04-10T08:38:46.465Z,23.83
2017-04-10T08:39:46.470Z,23.66
2017-04-10T08:40:46.777Z,23.57
2017-04-10T08:41:46.485Z,23.38
2017-04-10T08:42:46.489Z,23.35
2017-04-10T08:43:46.491Z,23.17
2017-04-10T08:44:46.502Z,23.2
2017-04-10T08:45:46.755Z,23.07
2017-04-10T08:46:46.506Z,23.01
2017-04-10T08:47:46.514Z,22.95
2017-04-10T08:48:46.517Z,22.85
2017-04-10T08:49:46.218Z,22.72
2017-04-10T08:50:46.772Z,22.6
2017-04-10T08:51:46.222Z,22.46
2017-04-10T08:52:46.534Z,22.45
2017-04-10T08:53:46.543Z,22.33
2017-04-10T08:54:47.376Z,22.24
2017-04-10T08:55:46.539Z,22.17
2017-04-10T08:56:46.237Z,22.15
2017-04-10T08:57:46.544Z,22.2
2017-04-10T08:58:46.548Z,22.06
2017-04-10T08:59:46.550Z,21.98
2017-04-10T09:00:46.801Z,22.03
2017-04-10T09:01:46.594Z,22.05
2017-04-10T09:02:46.555Z,21.9
2017-04-10T09:03:46.566Z,21.88
2017-04-10T09:04:46.562Z,21.91
2017-04-10T09:05:46.559Z,21.91
2017-04-10T09:06:46.563Z,21.83
2017-04-10T09:07:46.563Z,21.82
2017-04-10T09:08:46.566Z,21.83
2017-04-10T09:09:46.566Z,21.84
2017-04-10T09:10:46.519Z,21.84
2017-04-10T09:11:46.267Z,21.86
2017-04-10T09:12:46.570Z,21.88
2017-04-10T09:13:46.570Z,21.8
2017-04-10T09:14:46.572Z,21.82
2017-04-10T09:15:46.925Z,21.8
2017-04-10T09:16:46.278Z,21.77
2017-04-10T09:17:46.575Z,21.68
2017-04-10T09:18:46.577Z,21.72
2017-04-10T09:19:46.578Z,21.61
2017-04-10T09:20:46.828Z,21.67
2017-04-10T09:21:46.580Z,21.58
2017-04-10T09:22:46.277Z,21.64
2017-04-10T09:23:46.585Z,21.62
2017-04-10T09:24:46.583Z,21.67
2017-04-10T09:25:46.876Z,21.65
2017-04-10T09:26:46.587Z,21.69
2017-04-10T09:27:46.283Z,21.67
2017-04-10T09:28:46.587Z,21.67
2017-04-10T09:29:46.288Z,21.72
2017-04-10T09:30:46.838Z,21.69
2017-04-10T09:31:46.595Z,21.68
2017-04-10T09:32:46.588Z,21.68
2017-04-10T09:33:46.589Z,21.69
2017-04-10T09:34:46.594Z,21.65
2017-04-10T09:35:46.857Z,21.74
2017-04-10T09:36:46.590Z,21.64
2017-04-10T09:37:46.591Z,21.69
2017-04-10T09:38:46.595Z,21.75
2017-04-10T09:39:46.595Z,21.67
2017-04-10T09:40:46.896Z,21.77
2017-04-10T09:41:46.289Z,21.74
2017-04-10T09:42:46.294Z,21.82
2017-04-10T09:43:46.596Z,21.88
2017-04-10T09:44:46.595Z,21.86
2017-04-10T09:45:46.847Z,21.83
2017-04-10T09:46:46.301Z,21.86
2017-04-10T09:47:46.603Z,21.88
2017-04-10T09:48:46.597Z,21.77
2017-04-10T09:49:46.601Z,21.77
2017-04-10T09:50:46.952Z,21.94
2017-04-10T09:51:46.599Z,21.88
2017-04-10T09:52:46.296Z,21.92
2017-04-10T09:53:46.600Z,21.94
2017-04-10T09:54:45.996Z,22.02
2017-04-10T09:55:46.858Z,22.05
2017-04-10T09:56:46.603Z,21.96
2017-04-10T09:57:45.996Z,21.98
2017-04-10T09:58:46.609Z,22.02
2017-04-10T09:59:46.606Z,22.06
2017-04-10T10:00:46.601Z,22.14
2017-04-10T10:01:46.303Z,22.12
2017-04-10T10:02:46.304Z,22.15
2017-04-10T10:03:46.304Z,22.18
2017-04-10T10:04:46.609Z,22.21
2017-04-10T10:05:46.895Z,22.21
2017-04-10T10:06:46.610Z,22.22
2017-04-10T10:07:46.003Z,22.25
2017-04-10T10:08:46.309Z,22.24
2017-04-10T10:09:46.612Z,22.27
2017-04-10T10:10:46.911Z,22.25
2017-04-10T10:11:46.307Z,22.33
2017-04-10T10:12:46.308Z,22.35
2017-04-10T10:13:46.612Z,22.28
2017-04-10T10:14:46.311Z,22.31
2017-04-10T10:15:46.562Z,22.36
2017-04-10T10:16:46.615Z,22.39
2017-04-10T10:17:46.316Z,22.42
2017-04-10T10:18:46.010Z,22.47
2017-04-10T10:19:46.010Z,22.49
2017-04-10T10:20:46.869Z,22.49
2017-04-10T10:21:46.660Z,22.49
2017-04-10T10:22:46.317Z,22.51
2017-04-10T10:23:46.318Z,22.52
2017-04-10T10:24:46.622Z,22.54
2017-04-10T10:25:46.927Z,22.49
2017-04-10T10:26:46.318Z,22.55
2017-04-10T10:27:46.326Z,22.64
2017-04-10T10:28:46.625Z,22.61
2017-04-10T10:29:46.321Z,22.67
2017-04-10T10:30:46.877Z,22.75
2017-04-10T10:31:46.328Z,22.76
2017-04-10T10:32:46.324Z,22.88
2017-04-10T10:33:46.324Z,22.91
2017-04-10T10:34:46.328Z,22.86
2017-04-10T10:35:46.581Z,22.94
2017-04-10T10:36:46.334Z,22.94
2017-04-10T10:37:46.633Z,22.92
2017-04-10T10:38:46.330Z,22.97
2017-04-10T10:39:46.632Z,23.12
2017-04-10T10:40:46.032Z,23.12
2017-04-10T10:41:46.031Z,23.2
2017-04-10T10:42:46.638Z,23.1
2017-04-10T10:43:46.640Z,23.27
2017-04-10T10:44:46.338Z,23.31
2017-04-10T10:45:46.345Z,23.39
2017-04-10T10:46:46.343Z,23.5
2017-04-10T10:47:46.643Z,23.51
2017-04-10T10:48:46.644Z,23.57
2017-04-10T10:49:46.647Z,23.72
2017-04-10T10:50:46.345Z,23.69
2017-04-10T10:51:46.347Z,23.76
2017-04-10T10:52:46.651Z,23.84
2017-04-10T10:53:46.354Z,23.94
2017-04-10T10:54:46.660Z,24.06
2017-04-10T10:55:46.660Z,24.08
2017-04-10T10:56:46.663Z,24.13
2017-04-10T10:57:46.055Z,24.1
2017-04-10T10:58:46.679Z,24.15
2017-04-10T10:59:46.058Z,24.18
2017-04-10T11:00:46.666Z,24.27
2017-04-10T11:01:46.363Z,24.39
2017-04-10T11:02:46.366Z,24.42
2017-04-10T11:03:46.694Z,24.53
2017-04-10T11:04:46.675Z,24.47
2017-04-10T11:05:46.676Z,24.53
2017-04-10T11:06:46.679Z,24.57
2017-04-10T11:07:46.375Z,24.5
2017-04-10T11:08:46.378Z,24.42
2017-04-10T11:09:46.077Z,24.45
2017-04-10T11:10:46.734Z,24.46
2017-04-10T11:11:46.692Z,24.52
2017-04-10T11:12:46.690Z,24.53
2017-04-10T11:13:46.695Z,24.64
2017-04-10T11:14:46.947Z,24.61
2017-04-10T11:15:46.700Z,24.68
2017-04-10T11:16:46.399Z,24.64
2017-04-10T11:17:46.705Z,24.62
2017-04-10T11:18:46.708Z,24.65
2017-04-10T11:19:47.012Z,24.71
2017-04-10T11:20:46.410Z,24.78
2017-04-10T11:21:46.716Z,24.73
2017-04-10T11:22:46.416Z,24.73
2017-04-10T11:23:46.419Z,24.78
2017-04-10T11:24:47.023Z,24.69
2017-04-10T11:25:46.428Z,24.76
2017-04-10T11:26:46.729Z,24.73
2017-04-10T11:27:46.429Z,24.69
2017-04-10T11:28:46.735Z,24.73
2017-04-10T11:29:46.992Z,24.69
2017-04-10T11:30:46.741Z,24.76
2017-04-10T11:31:46.746Z,24.81
2017-04-10T11:32:46.142Z,24.8
2017-04-10T11:33:46.750Z,24.87
2017-04-10T11:34:47.003Z,24.83
2017-04-10T11:35:46.753Z,24.83
2017-04-10T11:36:46.759Z,24.76
2017-04-10T11:37:46.762Z,24.78
2017-04-10T11:38:46.766Z,24.78
2017-04-10T11:39:47.017Z,24.73
2017-04-10T11:40:46.773Z,24.68
2017-04-10T11:41:46.775Z,24.6
2017-04-10T11:42:46.775Z,24.5
2017-04-10T11:43:46.476Z,24.42
2017-04-10T11:44:47.034Z,24.35
2017-04-10T11:45:46.785Z,24.37
2017-04-10T11:46:46.789Z,24.13
2017-04-10T11:47:46.793Z,23.94
2017-04-10T11:48:46.792Z,23.98
2017-04-10T11:49:47.047Z,23.8
2017-04-10T11:50:46.804Z,23.73
2017-04-10T11:51:46.801Z,23.61
2017-04-10T11:52:46.802Z,23.5
2017-04-10T11:53:46.809Z,23.38
2017-04-10T11:54:47.118Z,23.27
2017-04-10T11:55:46.817Z,23.13
2017-04-10T11:56:46.813Z,23.16
2017-04-10T11:57:46.850Z,23.07
2017-04-10T11:58:46.817Z,23.09
2017-04-10T11:59:47.076Z,23.07
2017-04-10T12:00:46.830Z,23.07
2017-04-10T12:01:46.824Z,23.1
2017-04-10T12:02:46.832Z,23.04
2017-04-10T12:03:46.827Z,23.15
2017-04-10T12:04:47.130Z,23.02
2017-04-10T12:05:46.832Z,23.05
2017-04-10T12:06:46.836Z,23.02
2017-04-10T12:07:46.836Z,23.07
2017-04-10T12:08:46.846Z,22.98
2017-04-10T12:09:47.091Z,22.98
2017-04-10T12:10:46.873Z,22.92
2017-04-10T12:11:46.850Z,22.86
2017-04-10T12:12:46.845Z,22.76
2017-04-10T12:13:46.848Z,22.75
2017-04-10T12:14:47.201Z,22.64
2017-04-10T12:15:46.849Z,22.64
2017-04-10T12:16:46.851Z,22.62
2017-04-10T12:17:46.898Z,22.6
2017-04-10T12:18:46.856Z,22.64
2017-04-10T12:19:47.105Z,22.64
2017-04-10T12:20:46.858Z,22.75
2017-04-10T12:21:46.860Z,22.75
2017-04-10T12:22:46.861Z,22.73
2017-04-10T12:23:46.864Z,22.72
2017-04-10T12:24:47.166Z,22.72
2017-04-10T12:25:46.864Z,22.73
2017-04-10T12:26:46.890Z,22.62
2017-04-10T12:27:46.868Z,22.52
2017-04-10T12:28:46.866Z,22.52
2017-04-10T12:29:47.122Z,22.52
2017-04-10T12:30:46.871Z,22.64
2017-04-10T12:31:46.870Z,22.6
2017-04-10T12:32:46.877Z,22.64
2017-04-10T12:33:46.874Z,22.6
2017-04-10T12:34:47.125Z,22.55
2017-04-10T12:35:46.877Z,22.62
2017-04-10T12:36:46.875Z,22.67
2017-04-10T12:37:46.887Z,22.73
2017-04-10T12:38:46.879Z,22.7
2017-04-10T12:39:47.180Z,22.75
2017-04-10T12:40:46.881Z,22.72
2017-04-10T12:41:46.883Z,22.73
2017-04-10T12:42:46.885Z,22.7
2017-04-10T12:43:47.245Z,22.62
2017-04-10T12:44:47.241Z,22.52
2017-04-10T12:45:46.890Z,22.54
2017-04-10T12:46:46.890Z,22.46
2017-04-10T12:47:46.892Z,22.39
2017-04-10T12:48:46.911Z,22.22
2017-04-10T12:49:47.193Z,22.15
2017-04-10T12:50:46.893Z,22.09
2017-04-10T12:51:46.590Z,22.1
2017-04-10T12:52:46.896Z,22.1
2017-04-10T12:53:46.900Z,22.06
2017-04-10T12:54:47.248Z,22.18
2017-04-10T12:55:46.899Z,22.2
2017-04-10T12:56:46.902Z,22.25
2017-04-10T12:57:46.900Z,22.39
2017-04-10T12:58:46.906Z,22.28
2017-04-10T12:59:47.205Z,22.36
2017-04-10T13:00:46.903Z,22.49
2017-04-10T13:01:46.908Z,22.46
2017-04-10T13:02:46.906Z,22.49
2017-04-10T13:03:46.911Z,22.33
2017-04-10T13:04:47.210Z,22.35
2017-04-10T13:05:46.912Z,22.46